createdAt,value
2023-09-25T00:00:00.137Z,1.67
2023-09-25T00:02:28.195Z,1.55
2023-09-25T00:04:55.324Z,1.33
2023-09-25T00:07:29.896Z,1.75
2023-09-25T00:09:56.869Z,1.75
2023-09-25T00:12:25.101Z,1.10
2023-09-25T00:14:52.065Z,1.40
2023-09-25T00:17:19.033Z,1.40
2023-09-25T00:19:45.903Z,1.75
2023-09-25T00:22:12.803Z,1.20
2023-09-25T00:24:40.044Z,1.15
2023-09-25T00:27:07.782Z,1.10
2023-09-25T00:29:34.645Z,1.20
2023-09-25T00:32:04.602Z,1.40
2023-09-25T00:34:32.938Z,1.55
2023-09-25T00:37:00.695Z,1.40
2023-09-25T00:39:27.598Z,1.00
2023-09-25T00:41:54.572Z,1.20
2023-09-25T00:44:23.156Z,1.63
2023-09-25T00:46:50.615Z,1.33
2023-09-25T00:49:17.709Z,1.13
2023-09-25T00:51:45.968Z,0.93
2023-09-25T00:54:23.013Z,1.52
2023-09-25T00:56:59.983Z,1.77
2023-09-25T00:59:28.079Z,1.17
2023-09-25T01:01:55.691Z,1.35
2023-09-25T01:04:25.699Z,1.27
2023-09-25T01:06:53.126Z,1.27
2023-09-25T01:09:20.187Z,1.20
2023-09-25T01:11:47.090Z,1.05
2023-09-25T01:14:14.165Z,1.05
2023-09-25T01:16:42.568Z,1.15
2023-09-25T01:19:11.098Z,0.80
2023-09-25T01:21:38.050Z,1.38
2023-09-25T01:24:05.622Z,1.17
2023-09-25T01:26:32.567Z,1.27
2023-09-25T01:29:00.073Z,1.50
2023-09-25T01:31:26.938Z,1.30
2023-09-25T01:33:53.789Z,1.10
2023-09-25T01:36:21.092Z,1.40
2023-09-25T01:38:48.878Z,1.25
2023-09-25T01:41:16.248Z,1.40
2023-09-25T01:43:44.332Z,1.20
2023-09-25T01:46:11.357Z,1.13
2023-09-25T01:48:38.775Z,1.35
2023-09-25T01:51:10.425Z,1.17
2023-09-25T01:53:40.320Z,1.20
2023-09-25T01:56:12.329Z,1.50
2023-09-25T01:58:41.567Z,1.48
2023-09-25T02:01:08.556Z,0.98
2023-09-25T02:03:35.945Z,1.58
2023-09-25T02:06:04.353Z,1.63
2023-09-25T02:08:31.281Z,1.40
2023-09-25T02:10:58.287Z,1.30
2023-09-25T02:13:25.173Z,1.63
2023-09-25T02:15:52.875Z,1.27
2023-09-25T02:18:20.039Z,1.30
2023-09-25T02:20:47.437Z,1.70
2023-09-25T02:23:14.359Z,1.60
2023-09-25T02:25:41.475Z,1.70
2023-09-25T02:28:08.321Z,2.05
2023-09-25T02:30:35.396Z,1.83
2023-09-25T02:33:02.469Z,1.45
2023-09-25T02:35:29.524Z,1.55
2023-09-25T02:38:00.581Z,1.42
2023-09-25T02:40:39.704Z,1.63
2023-09-25T02:43:06.626Z,1.50
2023-09-25T02:45:34.334Z,1.70
2023-09-25T02:48:05.414Z,1.52
2023-09-25T02:50:32.382Z,1.98
2023-09-25T02:52:59.217Z,1.48
2023-09-25T02:55:26.186Z,1.30
2023-09-25T02:57:53.260Z,1.60
2023-09-25T03:00:20.313Z,1.65
2023-09-25T03:02:47.284Z,2.00
2023-09-25T03:05:15.717Z,1.98
2023-09-25T03:07:42.657Z,1.63
2023-09-25T03:10:09.946Z,1.55
2023-09-25T03:12:36.955Z,1.45
2023-09-25T03:15:06.184Z,1.60
2023-09-25T03:17:33.705Z,1.60
2023-09-25T03:20:01.844Z,2.10
2023-09-25T03:22:28.823Z,1.63
2023-09-25T03:24:56.998Z,1.42
2023-09-25T03:27:23.905Z,2.00
2023-09-25T03:29:50.814Z,1.85
2023-09-25T03:32:17.725Z,1.95
2023-09-25T03:34:44.900Z,1.35
2023-09-25T03:37:11.870Z,1.50
2023-09-25T03:39:38.716Z,1.73
2023-09-25T03:42:05.924Z,1.48
2023-09-25T03:44:32.976Z,1.63
2023-09-25T03:47:00.077Z,1.65
2023-09-25T03:49:27.114Z,1.75
2023-09-25T03:51:54.037Z,1.60
2023-09-25T03:54:20.927Z,1.50
2023-09-25T03:56:47.859Z,1.88
2023-09-25T03:59:15.121Z,1.52
2023-09-25T04:01:42.216Z,2.10
2023-09-25T04:04:09.238Z,1.77
2023-09-25T04:06:36.314Z,1.52
2023-09-25T04:09:03.209Z,1.85
2023-09-25T04:11:30.094Z,1.55
2023-09-25T04:13:58.166Z,1.65
2023-09-25T04:16:25.102Z,1.38
2023-09-25T04:18:52.278Z,1.80
2023-09-25T04:21:19.533Z,1.50
2023-09-25T04:23:46.567Z,1.55
2023-09-25T04:26:13.488Z,1.40
2023-09-25T04:28:44.287Z,1.52
2023-09-25T04:31:12.730Z,1.40
2023-09-25T04:33:40.492Z,1.60
2023-09-25T04:36:11.910Z,1.48
2023-09-25T04:38:39.139Z,1.85
2023-09-25T04:41:06.772Z,2.05
2023-09-25T04:43:33.888Z,2.10
2023-09-25T04:46:02.043Z,1.65
2023-09-25T04:48:31.111Z,1.77
2023-09-25T04:50:58.808Z,1.90
2023-09-25T04:53:25.709Z,2.45
2023-09-25T04:55:53.734Z,2.03
2023-09-25T04:58:20.903Z,2.00
2023-09-25T05:00:47.973Z,1.67
2023-09-25T05:03:15.293Z,1.58
2023-09-25T05:05:42.660Z,1.35
2023-09-25T05:08:09.647Z,1.83
2023-09-25T05:10:36.628Z,2.55
2023-09-25T05:13:03.688Z,1.80
2023-09-25T05:15:31.909Z,1.77
2023-09-25T05:17:58.892Z,2.00
2023-09-25T05:20:27.787Z,1.85
2023-09-25T05:22:56.863Z,1.52
2023-09-25T05:25:24.466Z,1.75
2023-09-25T05:27:53.072Z,1.95
2023-09-25T05:30:20.601Z,1.58
2023-09-25T05:32:49.736Z,1.60
2023-09-25T05:35:17.652Z,2.03
2023-09-25T05:37:46.943Z,1.60
2023-09-25T05:40:15.120Z,1.77
2023-09-25T05:42:44.203Z,1.80
2023-09-25T05:45:15.638Z,2.13
2023-09-25T05:47:44.450Z,1.90
2023-09-25T05:50:12.841Z,1.58
2023-09-25T05:52:40.988Z,2.45
2023-09-25T05:55:09.257Z,1.95
2023-09-25T05:57:36.590Z,2.20
2023-09-25T06:00:12.038Z,2.08
2023-09-25T06:02:43.486Z,2.13
2023-09-25T06:05:13.996Z,1.50
2023-09-25T06:07:41.697Z,2.42
2023-09-25T06:10:09.576Z,2.00
2023-09-25T06:12:44.041Z,1.88
2023-09-25T06:15:12.006Z,1.45
2023-09-25T06:17:40.285Z,1.45
2023-09-25T06:20:15.493Z,1.80
2023-09-25T06:22:45.087Z,1.48
2023-09-25T06:25:12.840Z,1.58
2023-09-25T06:27:41.587Z,1.70
2023-09-25T06:30:10.714Z,2.10
2023-09-25T06:32:38.279Z,1.70
2023-09-25T06:35:07.520Z,1.88
2023-09-25T06:37:37.806Z,1.98
2023-09-25T06:40:14.010Z,1.58
2023-09-25T06:42:41.374Z,1.70
2023-09-25T06:45:09.715Z,1.33
2023-09-25T06:47:36.767Z,1.90
2023-09-25T06:50:04.884Z,1.80
2023-09-25T06:52:31.775Z,1.70
2023-09-25T06:54:58.794Z,1.70
2023-09-25T06:57:26.593Z,1.67
2023-09-25T06:59:53.824Z,1.80
2023-09-25T07:02:21.718Z,1.40
2023-09-25T07:04:49.159Z,1.20
2023-09-25T07:07:16.469Z,2.03
2023-09-25T07:09:44.026Z,1.90
2023-09-25T07:12:15.229Z,1.88
2023-09-25T07:14:42.121Z,2.78
2023-09-25T07:17:09.421Z,1.98
2023-09-25T07:19:36.450Z,1.77
2023-09-25T07:22:03.425Z,1.42
2023-09-25T07:24:30.875Z,1.20
2023-09-25T07:26:57.938Z,1.65
2023-09-25T07:29:40.717Z,3.25
2023-09-25T07:32:08.767Z,2.08
2023-09-25T07:34:35.780Z,1.52
2023-09-25T07:37:05.856Z,1.70
2023-09-25T07:39:36.221Z,1.13
2023-09-25T07:42:03.477Z,1.75
2023-09-25T07:44:34.578Z,1.58
2023-09-25T07:47:02.136Z,1.75
2023-09-25T07:49:29.058Z,1.27
2023-09-25T07:51:58.939Z,1.50
2023-09-25T07:54:25.869Z,2.28
2023-09-25T07:56:53.062Z,1.30
2023-09-25T07:59:26.708Z,1.10
2023-09-25T08:05:43.158Z,1.17
2023-09-25T08:08:17.758Z,1.50
2023-09-25T08:10:48.301Z,1.00
2023-09-25T08:13:16.664Z,1.02
2023-09-25T08:15:43.887Z,1.52
2023-09-25T08:18:10.921Z,1.50
2023-09-25T08:20:46.487Z,1.10
2023-09-25T08:23:13.386Z,1.20
2023-09-25T08:25:40.571Z,1.15
2023-09-25T08:28:10.347Z,1.25
2023-09-25T08:30:37.342Z,1.25
2023-09-25T08:33:04.473Z,1.17
2023-09-25T08:35:31.422Z,1.20
2023-09-25T08:37:58.257Z,1.48
2023-09-25T08:40:26.677Z,1.20
2023-09-25T08:43:05.315Z,1.13
2023-09-25T08:45:43.220Z,1.38
2023-09-25T08:48:11.805Z,1.65
2023-09-25T08:50:40.982Z,1.02
2023-09-25T08:53:09.535Z,0.98
2023-09-25T08:55:36.966Z,1.10
2023-09-25T08:58:08.852Z,0.82
2023-09-25T09:00:36.870Z,1.75
2023-09-25T09:05:52.656Z,0.82
2023-09-25T09:08:20.151Z,0.88
2023-09-25T09:10:47.000Z,1.35
2023-09-25T09:13:14.180Z,1.30
2023-09-25T09:15:42.426Z,0.80
2023-09-25T09:18:21.536Z,1.38
2023-09-25T09:20:50.039Z,1.17
2023-09-25T09:23:17.055Z,0.95
2023-09-25T09:25:50.843Z,1.60
2023-09-25T09:28:36.489Z,0.93
2023-09-25T09:31:06.461Z,0.98
2023-09-25T09:33:33.414Z,1.35
2023-09-25T09:36:00.298Z,0.98
2023-09-25T09:38:27.556Z,0.90
2023-09-25T09:40:55.685Z,1.48
2023-09-25T09:43:24.284Z,1.02
2023-09-25T09:45:51.693Z,1.23
2023-09-25T09:48:21.032Z,0.98
2023-09-25T09:50:53.695Z,1.40
2023-09-25T09:53:21.410Z,0.95
2023-09-25T09:55:49.087Z,1.55
2023-09-25T09:58:16.759Z,1.23
2023-09-25T10:00:44.198Z,0.90
2023-09-25T10:03:13.664Z,1.00
2023-09-25T10:05:51.204Z,0.77
2023-09-25T10:08:19.345Z,0.90
2023-09-25T10:10:55.433Z,1.23
2023-09-25T10:13:26.913Z,1.40
2023-09-25T10:15:59.356Z,1.10
2023-09-25T10:18:35.040Z,1.00
2023-09-25T10:21:15.593Z,0.77
2023-09-25T10:23:50.984Z,1.10
2023-09-25T10:26:33.995Z,0.90
2023-09-25T10:29:15.576Z,1.10
2023-09-25T10:31:48.827Z,0.95
2023-09-25T10:34:31.956Z,1.25
2023-09-25T10:37:01.856Z,0.95
2023-09-25T10:39:29.242Z,1.33
2023-09-25T10:42:08.557Z,0.95
2023-09-25T10:44:39.084Z,1.20
2023-09-25T10:47:12.599Z,1.67
2023-09-25T10:49:39.586Z,1.10
2023-09-25T10:52:06.726Z,0.90
2023-09-25T10:54:35.435Z,1.20
2023-09-25T10:57:02.691Z,1.30
2023-09-25T10:59:29.770Z,0.77
2023-09-25T11:01:56.669Z,0.80
2023-09-25T11:04:23.780Z,1.23
2023-09-25T11:09:32.040Z,1.10
2023-09-25T11:12:00.032Z,1.00
2023-09-25T11:14:26.976Z,1.13
2023-09-25T11:16:53.949Z,0.98
2023-09-25T11:19:23.055Z,1.20
2023-09-25T11:21:56.632Z,0.70
2023-09-25T11:24:23.757Z,1.13
2023-09-25T11:26:50.736Z,0.95
2023-09-25T11:29:17.756Z,0.80
2023-09-25T11:34:16.029Z,1.13
2023-09-25T11:36:46.524Z,1.20
2023-09-25T11:39:18.426Z,1.15
2023-09-25T11:41:45.947Z,1.70
2023-09-25T11:44:13.636Z,0.88
2023-09-25T11:46:43.318Z,1.35
2023-09-25T11:49:10.490Z,1.08
2023-09-25T11:51:37.754Z,0.77
2023-09-25T11:54:06.153Z,0.90
2023-09-25T11:56:34.229Z,0.87
2023-09-25T11:59:03.958Z,0.85
2023-09-25T12:01:30.918Z,0.90
2023-09-25T12:03:58.529Z,0.70
2023-09-25T12:06:26.082Z,0.88
2023-09-25T12:08:53.243Z,1.75
2023-09-25T12:11:20.191Z,0.80
2023-09-25T12:13:47.109Z,0.95
2023-09-25T12:16:14.361Z,1.00
2023-09-25T12:18:42.189Z,1.10
2023-09-25T12:21:10.420Z,1.05
2023-09-25T12:23:37.582Z,2.17
2023-09-25T12:26:05.339Z,1.08
2023-09-25T12:28:33.527Z,0.98
2023-09-25T12:31:00.879Z,0.90
2023-09-25T12:33:28.002Z,1.10
2023-09-25T12:35:55.011Z,0.90
2023-09-25T12:38:22.842Z,0.82
2023-09-25T12:40:49.993Z,1.10
2023-09-25T12:43:17.037Z,1.20
2023-09-25T12:45:44.222Z,1.42
2023-09-25T12:50:57.577Z,0.80
2023-09-25T12:53:25.002Z,0.75
2023-09-25T12:56:32.731Z,0.90
2023-09-25T12:58:59.655Z,0.90
2023-09-25T13:01:31.148Z,1.35
2023-09-25T13:03:58.303Z,1.08
2023-09-25T13:06:25.452Z,1.02
2023-09-25T13:08:55.175Z,1.10
2023-09-25T13:11:22.185Z,1.10
2023-09-25T13:13:49.281Z,1.05
2023-09-25T13:16:16.795Z,1.27
2023-09-25T13:18:44.187Z,0.93
2023-09-25T13:21:11.097Z,1.00
2023-09-25T13:23:38.249Z,1.00
2023-09-25T13:26:07.871Z,0.77
2023-09-25T13:28:50.859Z,1.02
2023-09-25T13:31:34.796Z,1.27
2023-09-25T13:34:01.987Z,0.93
2023-09-25T13:36:29.301Z,1.15
2023-09-25T13:38:56.346Z,1.10
2023-09-25T13:41:23.299Z,0.85
2023-09-25T13:43:50.381Z,1.30
2023-09-25T13:46:17.400Z,0.88
2023-09-25T13:48:45.048Z,0.95
2023-09-25T13:51:14.589Z,0.90
2023-09-25T13:53:42.591Z,0.85
2023-09-25T13:56:09.431Z,0.80
2023-09-25T13:58:36.352Z,1.02
2023-09-25T14:01:06.845Z,1.20
2023-09-25T14:03:34.616Z,0.90
2023-09-25T14:06:06.308Z,0.60
2023-09-25T14:08:33.382Z,1.20
2023-09-25T14:11:01.466Z,1.25
2023-09-25T14:13:28.953Z,0.90
2023-09-25T14:15:57.536Z,1.42
2023-09-25T14:18:25.374Z,1.13
2023-09-25T14:20:52.883Z,0.80
2023-09-25T14:23:20.095Z,1.10
2023-09-25T14:25:47.026Z,0.82
2023-09-25T14:28:13.978Z,0.73
2023-09-25T14:30:41.089Z,0.95
2023-09-25T14:33:08.157Z,1.00
2023-09-25T14:35:35.445Z,1.00
2023-09-25T14:38:02.481Z,0.70
2023-09-25T14:40:30.533Z,0.95
2023-09-25T14:43:00.218Z,0.70
2023-09-25T14:45:27.804Z,1.00
2023-09-25T14:47:54.939Z,1.17
2023-09-25T14:50:21.877Z,1.05
2023-09-25T14:52:48.801Z,0.70
2023-09-25T14:55:15.869Z,0.82
2023-09-25T14:57:43.642Z,1.83
2023-09-25T15:00:12.385Z,0.63
2023-09-25T15:02:39.663Z,0.90
2023-09-25T15:05:06.886Z,1.25
2023-09-25T15:07:36.205Z,1.00
2023-09-25T15:10:08.330Z,1.10
2023-09-25T15:12:35.488Z,0.82
2023-09-25T15:15:03.606Z,0.85
2023-09-25T15:17:31.451Z,0.82
2023-09-25T15:19:59.814Z,0.60
2023-09-25T15:22:30.743Z,1.02
2023-09-25T15:24:57.773Z,1.00
2023-09-25T15:27:24.750Z,0.80
2023-09-25T15:29:54.468Z,0.90
2023-09-25T15:32:21.412Z,0.95
2023-09-25T15:34:48.650Z,1.13
2023-09-25T15:37:16.279Z,0.85
2023-09-25T15:39:44.584Z,1.15
2023-09-25T15:42:11.634Z,1.30
2023-09-25T15:44:38.609Z,0.88
2023-09-25T15:47:05.665Z,1.00
2023-09-25T15:49:34.293Z,0.90
2023-09-25T15:52:01.343Z,1.13
2023-09-25T15:54:29.628Z,0.93
2023-09-25T15:56:56.612Z,0.47
2023-09-25T15:59:23.605Z,0.70
2023-09-25T16:01:50.911Z,0.90
2023-09-25T16:04:18.004Z,0.70
2023-09-25T16:06:45.131Z,0.82
2023-09-25T16:09:12.082Z,0.63
2023-09-25T16:11:39.045Z,1.23
2023-09-25T16:14:06.004Z,1.00
2023-09-25T16:16:33.166Z,1.02
2023-09-25T16:19:00.260Z,0.70
2023-09-25T16:21:27.208Z,1.00
2023-09-25T16:23:54.102Z,0.60
2023-09-25T16:26:21.014Z,0.90
2023-09-25T16:28:47.954Z,0.95
2023-09-25T16:31:15.109Z,1.10
2023-09-25T16:33:42.130Z,0.63
2023-09-25T16:36:09.152Z,1.02
2023-09-25T16:38:36.351Z,1.25
2023-09-25T16:41:07.468Z,1.10
2023-09-25T16:43:35.524Z,1.48
2023-09-25T16:46:06.714Z,1.25
2023-09-25T16:48:34.803Z,1.00
2023-09-25T16:51:01.828Z,1.20
2023-09-25T16:53:28.796Z,1.35
2023-09-25T16:55:55.719Z,0.90
2023-09-25T16:58:22.762Z,0.85
2023-09-25T17:00:50.010Z,0.80
2023-09-25T17:03:18.529Z,1.10
2023-09-25T17:05:45.633Z,0.85
2023-09-25T17:08:13.362Z,0.80
2023-09-25T17:10:42.390Z,0.90
2023-09-25T17:13:12.106Z,0.73
2023-09-25T17:15:40.913Z,0.77
2023-09-25T17:18:08.572Z,0.93
2023-09-25T17:20:35.515Z,0.95
2023-09-25T17:23:05.115Z,1.33
2023-09-25T17:25:33.451Z,0.90
2023-09-25T17:28:06.651Z,1.15
2023-09-25T17:30:35.663Z,1.67
2023-09-25T17:33:03.557Z,1.75
2023-09-25T17:35:31.798Z,1.90
2023-09-25T17:38:00.670Z,1.92
2023-09-25T17:40:27.863Z,2.25
2023-09-25T17:42:54.840Z,2.10
2023-09-25T17:45:22.641Z,1.70
2023-09-25T17:47:50.175Z,1.50
2023-09-25T17:50:17.502Z,1.00
2023-09-25T17:52:48.676Z,1.15
2023-09-25T17:55:16.086Z,1.05
2023-09-25T17:57:44.374Z,1.20
2023-09-25T18:00:11.737Z,1.00
2023-09-25T18:02:38.663Z,0.90
2023-09-25T18:05:07.405Z,1.05
2023-09-25T18:07:34.632Z,0.85
2023-09-25T18:10:01.607Z,0.95
2023-09-25T18:12:28.550Z,1.20
2023-09-25T18:14:57.018Z,1.20
2023-09-25T18:17:23.889Z,0.80
2023-09-25T18:19:50.917Z,0.82
2023-09-25T18:22:17.857Z,1.30
2023-09-25T18:24:45.371Z,1.25
2023-09-25T18:27:12.620Z,0.95
2023-09-25T18:29:39.511Z,1.30
2023-09-25T18:32:06.568Z,1.33
2023-09-25T18:34:36.567Z,1.13
2023-09-25T18:37:03.652Z,1.35
2023-09-25T18:39:30.576Z,1.45
2023-09-25T18:41:57.424Z,1.20
2023-09-25T18:44:24.439Z,1.42
2023-09-25T18:46:51.779Z,1.10
2023-09-25T18:49:18.857Z,1.40
2023-09-25T18:51:45.740Z,1.40
2023-09-25T18:54:12.735Z,2.00
2023-09-25T18:56:39.852Z,1.60
2023-09-25T18:59:09.203Z,2.05
2023-09-25T19:01:36.466Z,1.55
2023-09-25T19:04:04.071Z,1.83
2023-09-25T19:06:31.034Z,1.52
2023-09-25T19:08:58.087Z,1.58
2023-09-25T19:11:24.980Z,1.27
2023-09-25T19:13:51.918Z,1.13
2023-09-25T19:16:19.013Z,1.33
2023-09-25T19:18:46.013Z,1.13
2023-09-25T19:21:13.639Z,1.48
2023-09-25T19:23:42.532Z,1.60
2023-09-25T19:26:09.619Z,1.40
2023-09-25T19:28:36.688Z,2.00
2023-09-25T19:31:03.700Z,1.70
2023-09-25T19:33:54.408Z,1.40
2023-09-25T19:36:21.942Z,1.58
2023-09-25T19:38:49.268Z,1.70
2023-09-25T19:41:16.511Z,1.60
2023-09-25T19:43:43.427Z,1.42
2023-09-25T19:46:10.653Z,1.52
2023-09-25T19:48:37.748Z,1.70
2023-09-25T19:51:04.882Z,1.52
2023-09-25T19:53:31.872Z,1.85
2023-09-25T19:55:58.929Z,1.50
2023-09-25T19:58:25.921Z,1.90
2023-09-25T20:00:52.920Z,1.45
2023-09-25T20:03:19.941Z,1.60
2023-09-25T20:05:49.080Z,2.00
2023-09-25T20:08:19.501Z,1.70
2023-09-25T20:10:47.370Z,1.42
2023-09-25T20:13:14.437Z,1.50
2023-09-25T20:15:41.452Z,1.52
2023-09-25T20:18:08.740Z,1.35
2023-09-25T20:20:35.640Z,1.40
2023-09-25T20:23:04.920Z,1.70
2023-09-25T20:25:31.787Z,1.33
2023-09-25T20:27:59.453Z,1.80
2023-09-25T20:30:26.394Z,1.30
2023-09-25T20:32:53.249Z,1.90
2023-09-25T20:35:20.281Z,1.65
2023-09-25T20:37:47.157Z,1.58
2023-09-25T20:40:14.275Z,2.00
2023-09-25T20:42:41.315Z,1.60
2023-09-25T20:45:08.592Z,1.58
2023-09-25T20:47:36.722Z,1.80
2023-09-25T20:50:04.455Z,1.98
2023-09-25T20:52:31.790Z,1.38
2023-09-25T20:54:58.703Z,2.40
2023-09-25T20:57:25.621Z,1.77
2023-09-25T20:59:55.654Z,1.77
2023-09-25T21:02:22.559Z,1.92
2023-09-25T21:04:49.449Z,1.70
2023-09-25T21:07:16.736Z,1.98
2023-09-25T21:09:43.677Z,1.95
2023-09-25T21:12:10.590Z,2.00
2023-09-25T21:14:37.486Z,1.85
2023-09-25T21:17:05.128Z,1.85
2023-09-25T21:19:32.101Z,3.30
2023-09-25T21:21:58.956Z,2.40
2023-09-25T21:24:25.932Z,2.13
2023-09-25T21:26:53.246Z,2.22
2023-09-25T21:29:20.144Z,2.17
2023-09-25T21:31:47.166Z,2.53
2023-09-25T21:34:14.157Z,2.70
2023-09-25T21:36:42.691Z,3.22
2023-09-25T21:39:09.544Z,2.42
2023-09-25T21:41:36.453Z,3.42
2023-09-25T21:44:03.300Z,2.35
2023-09-25T21:46:30.333Z,2.40
2023-09-25T21:48:58.823Z,2.17
2023-09-25T21:51:25.807Z,2.47
2023-09-25T21:53:52.802Z,2.40
2023-09-25T21:56:19.735Z,2.95
2023-09-25T21:58:47.589Z,2.33
2023-09-25T22:01:14.724Z,2.53
2023-09-25T22:03:41.769Z,2.30
2023-09-25T22:06:08.795Z,2.70
2023-09-25T22:08:35.710Z,2.58
2023-09-25T22:11:02.573Z,2.60
2023-09-25T22:13:29.508Z,2.88
2023-09-25T22:15:56.540Z,2.53
2023-09-25T22:18:23.618Z,2.58
2023-09-25T22:20:50.451Z,2.17
2023-09-25T22:23:17.322Z,2.25
2023-09-25T22:25:44.435Z,2.60
2023-09-25T22:28:11.312Z,1.98
2023-09-25T22:30:38.251Z,1.90
2023-09-25T22:33:05.674Z,2.05
2023-09-25T22:35:33.965Z,2.38
2023-09-25T22:38:08.616Z,2.15
2023-09-25T22:40:40.922Z,2.40
2023-09-25T22:43:12.396Z,2.75
2023-09-25T22:45:39.475Z,2.55
2023-09-25T22:48:06.790Z,2.50
2023-09-25T22:50:34.383Z,2.28
2023-09-25T22:53:01.370Z,2.78
2023-09-25T22:55:28.172Z,1.85
2023-09-25T22:57:56.297Z,2.05
2023-09-25T23:00:26.667Z,2.80
2023-09-25T23:02:54.073Z,2.45
2023-09-25T23:05:22.996Z,2.13
2023-09-25T23:07:49.983Z,2.28
2023-09-25T23:10:17.538Z,2.90
2023-09-25T23:12:47.883Z,2.45
2023-09-25T23:15:16.268Z,2.10
2023-09-25T23:18:21.673Z,2.92
2023-09-25T23:20:52.641Z,2.25
2023-09-25T23:23:19.720Z,2.33
2023-09-25T23:25:46.566Z,2.30
2023-09-25T23:28:14.451Z,2.88
2023-09-25T23:30:41.837Z,2.83
2023-09-25T23:33:08.959Z,3.13
2023-09-25T23:35:36.030Z,2.67
2023-09-25T23:38:03.146Z,2.95
2023-09-25T23:40:31.651Z,2.33
2023-09-25T23:42:58.605Z,2.50
2023-09-25T23:45:26.425Z,2.80
2023-09-25T23:47:53.806Z,2.20
2023-09-25T23:50:23.862Z,2.50
2023-09-25T23:52:54.631Z,3.08
2023-09-25T23:55:22.044Z,2.78
2023-09-25T23:58:47.057Z,3.05
